createdAt,value
2018-02-22T00:01:01.724Z,-1.93
2018-02-22T00:03:29.432Z,-1.82
2018-02-22T00:05:56.951Z,-1.76
2018-02-22T00:08:24.456Z,-1.91
2018-02-22T00:10:52.003Z,-1.88
2018-02-22T00:13:19.567Z,-1.69
2018-02-22T00:15:47.083Z,-1.61
2018-02-22T00:18:14.580Z,-1.58
2018-02-22T00:20:42.138Z,-1.59
2018-02-22T00:23:09.699Z,-1.54
2018-02-22T00:25:37.259Z,-1.52
2018-02-22T00:28:04.755Z,-1.50
2018-02-22T00:30:32.282Z,-1.48
2018-02-22T00:32:59.776Z,-1.47
2018-02-22T00:35:27.296Z,-1.61
2018-02-22T00:37:54.859Z,-1.64
2018-02-22T00:40:22.376Z,-1.61
2018-02-22T00:42:49.982Z,-1.62
2018-02-22T00:45:17.499Z,-1.69
2018-02-22T00:47:45.006Z,-1.62
2018-02-22T00:50:12.531Z,-1.41
2018-02-22T00:52:40.027Z,-1.22
2018-02-22T00:55:07.543Z,-1.04
2018-02-22T00:57:36.052Z,-0.92
2018-02-22T01:00:03.611Z,-0.79
2018-02-22T01:02:31.102Z,-0.70
2018-02-22T01:04:58.728Z,-0.64
2018-02-22T01:07:26.214Z,-0.57
2018-02-22T01:09:53.739Z,-0.54
2018-02-22T01:12:21.314Z,-0.50
2018-02-22T01:14:48.827Z,-0.55
2018-02-22T01:17:16.323Z,-0.60
2018-02-22T01:19:43.857Z,-0.60
2018-02-22T01:22:11.461Z,-0.59
2018-02-22T01:24:38.980Z,-0.60
2018-02-22T01:27:06.588Z,-0.62
2018-02-22T01:29:34.128Z,-0.63
2018-02-22T01:32:01.619Z,-0.61
2018-02-22T01:34:29.163Z,-0.63
2018-02-22T01:36:56.660Z,-0.66
2018-02-22T01:39:24.168Z,-0.67
2018-02-22T01:41:51.683Z,-0.72
2018-02-22T01:44:19.179Z,-0.84
2018-02-22T01:46:46.709Z,-0.95
2018-02-22T01:49:14.216Z,-1.02
2018-02-22T01:51:41.851Z,-1.08
2018-02-22T01:54:09.343Z,-1.18
2018-02-22T01:56:36.862Z,-1.30
2018-02-22T01:59:04.403Z,-1.43
2018-02-22T02:01:31.938Z,-1.52
2018-02-22T02:03:59.432Z,-1.52
2018-02-22T02:06:26.964Z,-1.59
2018-02-22T02:08:54.472Z,-1.62
2018-02-22T02:11:21.995Z,-1.60
2018-02-22T02:13:49.491Z,-1.60
2018-02-22T02:16:17.007Z,-1.62
2018-02-22T02:18:44.667Z,-1.71
2018-02-22T02:21:12.280Z,-1.78
2018-02-22T02:23:39.778Z,-1.83
2018-02-22T02:26:07.505Z,-1.90
2018-02-22T02:28:35.015Z,-1.94
2018-02-22T02:31:02.532Z,-2.06
2018-02-22T02:33:30.036Z,-2.08
2018-02-22T02:35:57.555Z,-2.13
2018-02-22T02:38:25.080Z,-2.15
2018-02-22T02:40:52.856Z,-2.19
2018-02-22T02:43:20.348Z,-2.34
2018-02-22T02:45:47.877Z,-2.38
2018-02-22T02:48:15.424Z,-2.41
2018-02-22T02:50:43.086Z,-2.34
2018-02-22T02:53:10.589Z,-2.24
2018-02-22T02:55:38.125Z,-2.33
2018-02-22T02:58:05.623Z,-2.24
2018-02-22T03:00:33.158Z,-2.22
2018-02-22T03:03:00.657Z,-2.29
2018-02-22T03:05:28.155Z,-2.20
2018-02-22T03:07:55.667Z,-2.15
2018-02-22T03:10:23.284Z,-2.15
2018-02-22T03:12:50.811Z,-2.12
2018-02-22T03:15:18.372Z,-2.07
2018-02-22T03:17:45.939Z,-2.15
2018-02-22T03:20:13.498Z,-2.24
2018-02-22T03:22:41.035Z,-2.32
2018-02-22T03:25:08.537Z,-2.28
2018-02-22T03:27:36.099Z,-2.32
2018-02-22T03:30:03.600Z,-2.52
2018-02-22T03:32:31.192Z,-2.58
2018-02-22T03:34:58.683Z,-2.61
2018-02-22T03:37:26.224Z,-2.55
2018-02-22T03:39:53.719Z,-2.55
2018-02-22T03:42:21.251Z,-2.52
2018-02-22T03:44:48.756Z,-2.41
2018-02-22T03:47:16.299Z,-2.39
2018-02-22T03:49:43.787Z,-2.43
2018-02-22T03:52:11.484Z,-2.48
2018-02-22T03:54:39.004Z,-2.28
2018-02-22T03:57:06.534Z,-2.28
2018-02-22T03:59:34.031Z,-2.42
2018-02-22T04:02:01.603Z,-2.43
2018-02-22T04:04:29.160Z,-2.55
2018-02-22T04:06:56.719Z,-2.60
2018-02-22T04:09:24.296Z,-2.48
2018-02-22T04:11:51.815Z,-2.58
2018-02-22T04:14:19.311Z,-2.63
2018-02-22T04:16:46.860Z,-2.61
2018-02-22T04:19:14.367Z,-2.66
2018-02-22T04:21:41.883Z,-2.58
2018-02-22T04:24:09.434Z,-2.67
2018-02-22T04:26:36.948Z,-2.67
2018-02-22T04:29:04.469Z,-2.68
2018-02-22T04:31:32.006Z,-2.71
2018-02-22T04:33:59.516Z,-2.79
2018-02-22T04:36:27.027Z,-2.79
2018-02-22T04:38:54.519Z,-2.76
2018-02-22T04:41:22.035Z,-2.73
2018-02-22T04:43:49.576Z,-2.74
2018-02-22T04:46:17.112Z,-2.72
2018-02-22T04:48:44.632Z,-2.75
2018-02-22T04:51:12.202Z,-2.69
2018-02-22T04:53:39.728Z,-2.75
2018-02-22T04:56:07.286Z,-2.76
2018-02-22T04:58:34.864Z,-2.77
2018-02-22T05:01:02.425Z,-2.79
2018-02-22T05:03:29.955Z,-2.66
2018-02-22T05:05:57.616Z,-2.71
2018-02-22T05:08:25.135Z,-2.77
2018-02-22T05:10:52.648Z,-2.75
2018-02-22T05:13:20.193Z,-2.76
2018-02-22T05:15:47.711Z,-2.87
2018-02-22T05:18:15.243Z,-2.91
2018-02-22T05:20:42.799Z,-2.93
2018-02-22T05:23:10.323Z,-2.95
2018-02-22T05:25:37.952Z,-3.10
2018-02-22T05:28:05.471Z,-3.05
2018-02-22T05:30:33.040Z,-3.07
2018-02-22T05:33:00.599Z,-2.94
2018-02-22T05:35:28.087Z,-2.98
2018-02-22T05:37:55.615Z,-2.95
2018-02-22T05:40:23.181Z,-2.93
2018-02-22T05:42:50.715Z,-3.06
2018-02-22T05:45:18.228Z,-3.01
2018-02-22T05:47:45.751Z,-3.00
2018-02-22T05:50:13.257Z,-3.04
2018-02-22T05:52:40.772Z,-3.04
2018-02-22T05:55:08.336Z,-3.01
2018-02-22T05:57:35.889Z,-3.06
2018-02-22T06:00:03.404Z,-3.21
2018-02-22T06:02:30.966Z,-3.06
2018-02-22T06:04:58.456Z,-3.14
2018-02-22T06:07:25.995Z,-3.01
2018-02-22T06:09:53.492Z,-2.94
2018-02-22T06:12:21.040Z,-2.96
2018-02-22T06:14:48.612Z,-3.00
2018-02-22T06:17:16.167Z,-3.04
2018-02-22T06:19:43.732Z,-3.06
2018-02-22T06:22:11.236Z,-3.01
2018-02-22T06:24:38.836Z,-3.02
2018-02-22T06:27:06.344Z,-3.00
2018-02-22T06:29:33.863Z,-3.05
2018-02-22T06:32:01.415Z,-2.99
2018-02-22T06:34:28.931Z,-2.91
2018-02-22T06:36:56.547Z,-2.95
2018-02-22T06:39:24.112Z,-2.91
2018-02-22T06:41:51.612Z,-2.86
2018-02-22T06:44:19.143Z,-2.85
2018-02-22T06:46:46.672Z,-2.83
2018-02-22T06:49:14.192Z,-2.80
2018-02-22T06:51:41.691Z,-2.73
2018-02-22T06:54:09.252Z,-2.65
2018-02-22T06:56:36.768Z,-2.57
2018-02-22T06:59:04.291Z,-2.43
2018-02-22T07:01:31.837Z,-2.37
2018-02-22T07:03:59.351Z,-2.26
2018-02-22T07:06:26.957Z,-2.19
2018-02-22T07:08:54.475Z,-2.17
2018-02-22T07:11:22.036Z,-2.10
2018-02-22T07:13:49.567Z,-2.05
2018-02-22T07:16:17.087Z,-2.04
2018-02-22T07:18:44.604Z,-2.03
2018-02-22T07:21:12.119Z,-1.97
2018-02-22T07:23:39.632Z,-1.95
2018-02-22T07:26:07.130Z,-1.94
2018-02-22T07:28:34.648Z,-1.89
2018-02-22T07:31:02.160Z,-1.88
2018-02-22T07:33:29.686Z,-1.79
2018-02-22T07:35:57.171Z,-1.83
2018-02-22T07:38:24.730Z,-1.72
2018-02-22T07:40:52.272Z,-1.78
2018-02-22T07:43:19.833Z,-1.75
2018-02-22T07:45:47.451Z,-1.75
2018-02-22T07:48:15.023Z,-1.67
2018-02-22T07:50:42.539Z,-1.67
2018-02-22T07:53:10.067Z,-1.59
2018-02-22T07:55:37.592Z,-1.61
2018-02-22T07:58:05.188Z,-1.57
2018-02-22T08:00:32.727Z,-1.63
2018-02-22T08:03:00.224Z,-1.54
2018-02-22T08:05:27.764Z,-1.51
2018-02-22T08:07:55.328Z,-1.53
2018-02-22T08:10:22.855Z,-1.49
2018-02-22T08:12:50.485Z,-1.45
2018-02-22T08:15:18.011Z,-1.40
2018-02-22T08:17:45.566Z,-1.48
2018-02-22T08:20:13.136Z,-1.52
2018-02-22T08:22:40.636Z,-1.42
2018-02-22T08:25:08.152Z,-1.38
2018-02-22T08:27:36.607Z,-1.30
2018-02-22T08:30:04.126Z,-1.24
2018-02-22T08:32:31.628Z,-1.18
2018-02-22T08:34:59.149Z,-1.24
2018-02-22T08:37:26.644Z,-1.22
2018-02-22T08:39:54.160Z,-1.26
2018-02-22T08:42:21.704Z,-1.14
2018-02-22T08:44:49.263Z,-1.13
2018-02-22T08:47:16.859Z,-1.13
2018-02-22T08:49:44.371Z,-1.18
2018-02-22T08:52:11.882Z,-1.08
2018-02-22T08:54:39.488Z,-1.06
2018-02-22T08:57:07.029Z,-0.93
2018-02-22T08:59:34.546Z,-0.81
2018-02-22T09:02:02.151Z,-0.86
2018-02-22T09:04:29.668Z,-0.89
2018-02-22T09:06:57.285Z,-0.81
2018-02-22T09:09:24.950Z,-0.85
2018-02-22T09:11:52.444Z,-0.85
2018-02-22T09:14:19.967Z,-0.84
2018-02-22T09:16:47.463Z,-0.86
2018-02-22T09:19:14.980Z,-0.70
2018-02-22T09:21:42.565Z,-0.58
2018-02-22T09:24:10.158Z,-0.51
2018-02-22T09:26:37.743Z,-0.47
2018-02-22T09:29:05.317Z,-0.40
2018-02-22T09:31:32.836Z,-0.31
2018-02-22T09:34:00.346Z,-0.25
2018-02-22T09:36:27.901Z,-0.27
2018-02-22T09:38:55.430Z,-0.25
2018-02-22T09:41:22.955Z,-0.26
2018-02-22T09:43:50.481Z,-0.25
2018-02-22T09:46:18.024Z,-0.20
2018-02-22T09:48:45.525Z,-0.18
2018-02-22T09:51:13.055Z,-0.12
2018-02-22T09:53:40.546Z,-0.16
2018-02-22T09:56:08.059Z,-0.13
2018-02-22T09:58:35.620Z,-0.02
2018-02-22T10:01:03.176Z,-0.02
2018-02-22T10:03:30.672Z,0.10
2018-02-22T10:05:58.184Z,0.15
2018-02-22T10:08:25.732Z,0.26
2018-02-22T10:10:53.276Z,0.35
2018-02-22T10:13:20.780Z,0.47
2018-02-22T10:15:48.336Z,0.60
2018-02-22T10:18:15.834Z,0.62
2018-02-22T10:20:43.604Z,0.60
2018-02-22T10:23:11.099Z,0.50
2018-02-22T10:25:38.671Z,0.58
2018-02-22T10:28:07.175Z,0.71
2018-02-22T10:30:34.831Z,0.58
2018-02-22T10:33:02.364Z,0.63
2018-02-22T10:35:29.919Z,0.63
2018-02-22T10:37:57.428Z,0.52
2018-02-22T10:40:24.988Z,0.58
2018-02-22T10:42:52.512Z,0.67
2018-02-22T10:45:20.028Z,0.70
2018-02-22T10:47:47.535Z,0.70
2018-02-22T10:50:15.048Z,0.75
2018-02-22T10:52:42.546Z,0.73
2018-02-22T10:55:11.024Z,0.82
2018-02-22T10:57:38.536Z,0.87
2018-02-22T11:00:06.056Z,0.89
2018-02-22T11:02:39.164Z,0.90
2018-02-22T11:05:06.676Z,0.92
2018-02-22T11:07:34.196Z,0.92
2018-02-22T11:10:01.684Z,0.96
2018-02-22T11:12:29.213Z,1.01
2018-02-22T11:14:56.710Z,0.99
2018-02-22T11:17:24.258Z,0.95
2018-02-22T11:19:51.925Z,0.98
2018-02-22T11:22:19.442Z,1.08
2018-02-22T11:24:47.855Z,1.12
2018-02-22T11:27:15.363Z,1.09
2018-02-22T11:29:42.859Z,1.08
2018-02-22T11:32:10.364Z,1.00
2018-02-22T11:34:37.870Z,1.01
2018-02-22T11:37:05.384Z,1.05
2018-02-22T11:39:32.940Z,1.04
2018-02-22T11:42:00.454Z,1.14
2018-02-22T11:44:27.973Z,1.13
2018-02-22T11:46:55.529Z,1.10
2018-02-22T11:49:23.076Z,1.17
2018-02-22T11:51:50.629Z,1.23
2018-02-22T11:54:18.112Z,1.37
2018-02-22T11:56:45.652Z,1.46
2018-02-22T11:59:13.152Z,1.52
2018-02-22T12:01:40.664Z,1.52
2018-02-22T12:04:08.238Z,1.53
2018-02-22T12:06:35.753Z,1.54
2018-02-22T12:09:03.247Z,1.61
2018-02-22T12:11:30.771Z,1.56
2018-02-22T12:13:58.360Z,1.56
2018-02-22T12:16:25.879Z,1.55
2018-02-22T12:18:53.371Z,1.58
2018-02-22T12:21:20.968Z,1.48
2018-02-22T12:23:48.499Z,1.45
2018-02-22T12:26:16.064Z,1.52
2018-02-22T12:28:43.561Z,1.58
2018-02-22T12:31:11.079Z,1.54
2018-02-22T12:33:38.635Z,1.59
2018-02-22T12:36:06.152Z,1.65
2018-02-22T12:38:33.639Z,1.56
2018-02-22T12:41:01.145Z,1.55
2018-02-22T12:43:28.695Z,1.46
2018-02-22T12:45:56.232Z,1.55
2018-02-22T12:48:23.776Z,1.64
2018-02-22T12:50:51.295Z,1.63
2018-02-22T12:53:18.868Z,1.67
2018-02-22T12:55:46.376Z,1.72
2018-02-22T12:58:13.887Z,1.59
2018-02-22T13:00:41.423Z,1.50
2018-02-22T13:03:08.931Z,1.55
2018-02-22T13:05:36.453Z,1.52
2018-02-22T13:08:04.235Z,1.58
2018-02-22T13:10:31.728Z,1.61
2018-02-22T13:12:59.252Z,1.59
2018-02-22T13:15:26.747Z,1.62
2018-02-22T13:17:54.299Z,1.68
2018-02-22T13:20:21.804Z,1.68
2018-02-22T13:22:49.319Z,1.59
2018-02-22T13:25:16.817Z,1.61
2018-02-22T13:27:44.333Z,1.56
2018-02-22T13:30:11.845Z,1.53
2018-02-22T13:32:51.245Z,1.53
2018-02-22T13:35:18.794Z,1.53
2018-02-22T13:40:48.935Z,1.69
2018-02-22T13:43:16.450Z,1.66
2018-02-22T13:45:43.941Z,1.71
2018-02-22T13:48:11.515Z,1.64
2018-02-22T13:50:50.848Z,1.53
2018-02-22T13:53:18.363Z,1.56
2018-02-22T13:55:45.871Z,1.37
2018-02-22T13:58:13.387Z,1.36
2018-02-22T14:00:52.759Z,1.37
2018-02-22T14:03:20.282Z,1.34
2018-02-22T14:05:47.774Z,1.40
2018-02-22T14:08:27.320Z,1.51
2018-02-22T14:10:54.893Z,1.48
2018-02-22T14:13:22.424Z,1.45
2018-02-22T14:15:49.911Z,1.46
2018-02-22T14:18:17.440Z,1.49
2018-02-22T14:20:45.545Z,1.42
2018-02-22T14:23:13.135Z,1.49
2018-02-22T14:25:40.619Z,1.48
2018-02-22T14:28:08.142Z,1.33
2018-02-22T14:30:35.638Z,1.34
2018-02-22T14:33:03.147Z,1.39
2018-02-22T14:35:30.680Z,1.48
2018-02-22T14:37:58.191Z,1.49
2018-02-22T14:40:25.692Z,1.45
2018-02-22T14:42:53.212Z,1.44
2018-02-22T14:45:20.708Z,1.45
2018-02-22T14:47:48.560Z,1.44
2018-02-22T14:50:16.052Z,1.39
2018-02-22T14:52:43.592Z,1.40
2018-02-22T14:55:11.155Z,1.41
2018-02-22T14:57:38.711Z,1.48
2018-02-22T15:00:06.200Z,1.36
2018-02-22T15:02:33.836Z,1.32
2018-02-22T15:05:01.396Z,1.27
2018-02-22T15:07:28.920Z,1.30
2018-02-22T15:09:56.416Z,1.32
2018-02-22T15:12:23.936Z,1.26
2018-02-22T15:14:51.464Z,1.18
2018-02-22T15:17:18.959Z,1.17
2018-02-22T15:19:46.508Z,1.18
2018-02-22T15:22:14.013Z,1.12
2018-02-22T15:24:41.523Z,1.15
2018-02-22T15:27:09.029Z,1.15
2018-02-22T15:29:36.543Z,1.17
2018-02-22T15:32:04.151Z,1.17
2018-02-22T15:34:31.663Z,1.12
2018-02-22T15:36:59.156Z,1.11
2018-02-22T15:39:26.673Z,1.06
2018-02-22T15:41:54.164Z,1.07
2018-02-22T15:44:21.743Z,1.06
2018-02-22T15:46:50.208Z,1.07
2018-02-22T15:49:17.726Z,1.01
2018-02-22T15:51:45.211Z,1.04
2018-02-22T15:54:12.815Z,1.09
2018-02-22T15:56:40.308Z,1.09
2018-02-22T15:59:07.828Z,1.07
2018-02-22T16:01:36.598Z,1.06
2018-02-22T16:04:04.108Z,1.05
2018-02-22T16:06:31.596Z,1.03
2018-02-22T16:08:59.184Z,1.01
2018-02-22T16:11:26.679Z,1.05
2018-02-22T16:13:54.195Z,1.03
2018-02-22T16:16:21.752Z,0.96
2018-02-22T16:18:49.299Z,0.95
2018-02-22T16:21:16.857Z,0.86
2018-02-22T16:23:44.380Z,0.88
2018-02-22T16:26:11.872Z,0.89
2018-02-22T16:28:39.395Z,0.89
2018-02-22T16:31:06.915Z,0.86
2018-02-22T16:33:34.424Z,0.91
2018-02-22T16:36:01.941Z,0.92
2018-02-22T16:38:29.460Z,0.90
2018-02-22T16:40:57.052Z,0.90
2018-02-22T16:43:24.584Z,0.88
2018-02-22T16:45:52.077Z,0.91
2018-02-22T16:48:19.610Z,0.86
2018-02-22T16:50:47.125Z,0.87
2018-02-22T16:53:14.619Z,0.84
2018-02-22T16:55:42.207Z,0.83
2018-02-22T16:58:09.703Z,0.81
2018-02-22T17:00:37.219Z,0.79
2018-02-22T17:03:04.752Z,0.77
2018-02-22T17:05:32.284Z,0.78
2018-02-22T17:08:00.788Z,0.81
2018-02-22T17:10:28.319Z,0.84
2018-02-22T17:12:55.819Z,0.82
2018-02-22T17:15:23.404Z,0.85
2018-02-22T17:17:50.961Z,0.86
2018-02-22T17:20:18.483Z,0.86
2018-02-22T17:22:45.998Z,0.86
2018-02-22T17:25:13.524Z,0.86
2018-02-22T17:27:46.600Z,0.87
2018-02-22T17:30:19.817Z,0.88
2018-02-22T17:32:47.307Z,0.88
2018-02-22T17:35:16.635Z,0.90
2018-02-22T17:37:44.124Z,0.89
2018-02-22T17:43:15.500Z,0.86
2018-02-22T17:45:43.120Z,0.87
2018-02-22T17:48:10.617Z,0.84
2018-02-22T17:50:38.155Z,0.85
2018-02-22T17:53:05.672Z,0.83
2018-02-22T17:55:33.240Z,0.87
2018-02-22T17:58:00.735Z,0.90
2018-02-22T18:00:28.248Z,0.89
2018-02-22T18:02:55.760Z,0.86
2018-02-22T18:05:23.292Z,0.88
2018-02-22T18:07:50.796Z,0.89
2018-02-22T18:10:18.358Z,0.91
2018-02-22T18:12:45.877Z,0.90
2018-02-22T18:15:13.452Z,0.88
2018-02-22T18:17:40.976Z,0.91
2018-02-22T18:20:08.505Z,0.89
2018-02-22T18:22:36.000Z,0.89
2018-02-22T18:25:03.537Z,0.88
2018-02-22T18:27:31.040Z,0.91
2018-02-22T18:29:58.648Z,0.90
2018-02-22T18:32:26.137Z,0.91
2018-02-22T18:34:53.750Z,0.92
2018-02-22T18:37:26.887Z,0.97
2018-02-22T18:39:54.399Z,0.96
2018-02-22T18:42:21.924Z,0.95
2018-02-22T18:44:55.084Z,0.94
2018-02-22T18:47:22.590Z,0.95
2018-02-22T18:49:50.099Z,0.94
2018-02-22T18:52:17.626Z,0.96
2018-02-22T18:54:45.211Z,0.92
2018-02-22T18:57:12.711Z,0.96
2018-02-22T18:59:40.203Z,0.97
2018-02-22T19:02:07.711Z,0.97
2018-02-22T19:04:35.198Z,0.99
2018-02-22T19:07:02.772Z,1.00
2018-02-22T19:09:30.331Z,0.96
2018-02-22T19:11:57.923Z,0.96
2018-02-22T19:14:25.375Z,0.98
2018-02-22T19:16:53.017Z,1.00
2018-02-22T19:19:20.503Z,0.98
2018-02-22T19:21:48.044Z,1.04
2018-02-22T19:24:15.588Z,1.07
2018-02-22T19:26:43.252Z,1.06
2018-02-22T19:29:11.702Z,1.09
2018-02-22T19:31:39.284Z,1.04
2018-02-22T19:34:06.771Z,1.01
2018-02-22T19:36:34.306Z,1.02
2018-02-22T19:39:01.799Z,1.05
2018-02-22T19:41:29.323Z,1.09
2018-02-22T19:43:56.887Z,1.08
2018-02-22T19:46:24.403Z,1.07
2018-02-22T19:48:52.010Z,1.06
2018-02-22T19:51:20.479Z,1.04
2018-02-22T19:53:48.050Z,1.03
2018-02-22T19:56:15.620Z,1.06
2018-02-22T19:58:43.116Z,1.09
2018-02-22T20:01:10.636Z,1.13
2018-02-22T20:03:38.132Z,1.12
2018-02-22T20:06:05.643Z,1.09
2018-02-22T20:08:33.207Z,1.08
2018-02-22T20:11:00.723Z,1.05
2018-02-22T20:13:29.216Z,1.05
2018-02-22T20:15:56.816Z,1.08
2018-02-22T20:18:24.303Z,1.07
2018-02-22T20:20:51.824Z,1.09
2018-02-22T20:23:19.380Z,1.09
2018-02-22T20:25:46.887Z,1.11
2018-02-22T20:28:14.382Z,1.09
2018-02-22T20:30:41.920Z,1.08
2018-02-22T20:33:09.516Z,1.09
2018-02-22T20:35:37.079Z,1.11
2018-02-22T20:38:04.605Z,1.11
2018-02-22T20:40:32.092Z,1.12
2018-02-22T20:42:59.603Z,1.09
2018-02-22T20:45:27.091Z,1.10
2018-02-22T20:47:54.628Z,1.13
2018-02-22T20:50:22.143Z,1.12
2018-02-22T20:52:53.620Z,1.11
2018-02-22T20:55:22.965Z,1.12
2018-02-22T20:57:50.483Z,1.08
2018-02-22T21:00:17.973Z,1.12
2018-02-22T21:02:45.504Z,1.14
2018-02-22T21:05:13.031Z,1.12
2018-02-22T21:07:40.544Z,1.15
2018-02-22T21:10:08.066Z,1.12
2018-02-22T21:12:35.580Z,1.11
2018-02-22T21:15:03.071Z,1.13
2018-02-22T21:17:30.584Z,1.13
2018-02-22T21:19:58.072Z,1.13
2018-02-22T21:22:25.604Z,1.13
2018-02-22T21:24:53.091Z,1.13
2018-02-22T21:27:20.636Z,1.13
2018-02-22T21:29:48.208Z,1.10
2018-02-22T21:32:15.723Z,1.10
2018-02-22T21:34:43.330Z,1.09
2018-02-22T21:37:10.847Z,1.13
2018-02-22T21:39:38.336Z,1.10
2018-02-22T21:42:05.996Z,1.06
2018-02-22T21:44:33.520Z,1.09
2018-02-22T21:47:01.031Z,1.12
2018-02-22T21:49:28.581Z,1.14
2018-02-22T21:51:56.103Z,1.10
2018-02-22T21:54:23.587Z,1.09
2018-02-22T21:56:51.163Z,1.06
2018-02-22T21:59:18.660Z,1.05
2018-02-22T22:01:46.171Z,1.09
2018-02-22T22:04:13.664Z,1.08
2018-02-22T22:06:41.196Z,1.04
2018-02-22T22:09:08.685Z,1.06
2018-02-22T22:11:36.176Z,1.04
2018-02-22T22:14:03.775Z,1.07
2018-02-22T22:16:31.301Z,1.01
2018-02-22T22:18:58.903Z,1.03
2018-02-22T22:21:26.400Z,1.00
2018-02-22T22:23:53.916Z,1.01
2018-02-22T22:26:21.416Z,0.98
2018-02-22T22:28:48.980Z,1.00
2018-02-22T22:31:16.479Z,0.95
2018-02-22T22:33:43.988Z,0.95
2018-02-22T22:36:11.495Z,0.95
2018-02-22T22:38:39.075Z,0.94
2018-02-22T22:41:06.564Z,0.88
2018-02-22T22:43:34.185Z,0.87
2018-02-22T22:46:01.701Z,0.88
2018-02-22T22:48:29.215Z,0.87
2018-02-22T22:50:56.728Z,0.87
2018-02-22T22:53:24.308Z,0.87
2018-02-22T22:55:51.877Z,0.88
2018-02-22T22:58:19.483Z,0.88
2018-02-22T23:00:46.969Z,0.84
2018-02-22T23:03:14.554Z,0.85
2018-02-22T23:05:42.108Z,0.81
2018-02-22T23:08:09.620Z,0.76
2018-02-22T23:10:37.112Z,0.76
2018-02-22T23:13:04.624Z,0.75
2018-02-22T23:15:32.111Z,0.76
2018-02-22T23:17:59.631Z,0.75
2018-02-22T23:20:27.139Z,0.76
2018-02-22T23:22:54.692Z,0.77
2018-02-22T23:25:23.207Z,0.72
2018-02-22T23:27:50.729Z,0.70
2018-02-22T23:30:18.323Z,0.68
2018-02-22T23:32:45.838Z,0.68
2018-02-22T23:35:13.348Z,0.67
2018-02-22T23:37:40.912Z,0.68
2018-02-22T23:40:15.023Z,0.68
2018-02-22T23:42:43.504Z,0.69
2018-02-22T23:45:11.059Z,0.63
2018-02-22T23:47:38.622Z,0.64
2018-02-22T23:50:06.115Z,0.64
2018-02-22T23:52:33.640Z,0.64
2018-02-22T23:55:01.165Z,0.64
2018-02-22T23:57:28.756Z,0.59
2018-02-22T23:59:56.272Z,0.60
